Time;durP1;ratioP1;P1;durP2;ratioP2;P2;SDS_P1;SDS_P2;PMS_P1;PMS_P2;Temp;Humidity;BMP_temperature;BMP_pressure;BME280_temperature;BME280_humidity;BME280_pressure;Samples;Min_cycle;Max_cycle;Signal;HPM_P1;HPM_P2
2023/03/13 00:01:14;;;;;;;5.17;3.33;;;4.10;93.90;;;;;;5072820;28;20178;-76
2023/03/13 00:03:40;;;;;;;4.00;3.60;;;4.20;93.90;;;;;;5073156;28;20167;-83
2023/03/13 00:06:06;;;;;;;3.77;3.40;;;4.20;93.90;;;;;;5073298;28;20568;-78
2023/03/13 00:08:31;;;;;;;4.13;2.97;;;4.10;94.00;;;;;;5073423;28;20201;-74
2023/03/13 00:11:00;;;;;;;3.80;3.30;;;4.20;94.00;;;;;;5074115;28;20174;-77
2023/03/13 00:13:26;;;;;;;4.00;3.20;;;4.10;94.00;;;;;;5065411;28;20175;-76
2023/03/13 00:16:01;;;;;;;5.33;3.03;;;4.10;94.10;;;;;;5076131;28;20178;-85
2023/03/13 00:18:27;;;;;;;3.47;3.17;;;4.10;94.00;;;;;;5071894;28;20232;-82
2023/03/13 00:21:04;;;;;;;3.70;3.40;;;4.20;94.00;;;;;;5072624;28;20170;-81
2023/03/13 00:23:31;;;;;;;4.43;3.90;;;4.20;93.80;;;;;;5077718;28;20173;-75
2023/03/13 00:25:59;;;;;;;4.17;3.77;;;4.30;93.70;;;;;;5078963;28;20535;-74
2023/03/13 00:28:26;;;;;;;3.63;3.33;;;4.40;93.50;;;;;;5054228;28;20206;-75
2023/03/13 00:31:18;;;;;;;3.30;3.10;;;4.40;93.30;;;;;;5054383;28;20171;-77
2023/03/13 00:33:47;;;;;;;4.20;3.83;;;4.40;93.40;;;;;;5072722;28;20194;-73
2023/03/13 00:36:16;;;;;;;4.67;3.77;;;4.30;93.50;;;;;;5079227;28;20204;-73
2023/03/13 00:38:42;;;;;;;4.70;3.70;;;4.30;93.70;;;;;;5075066;28;20577;-80
2023/03/13 00:41:13;;;;;;;4.10;3.77;;;4.30;93.60;;;;;;5072837;28;20195;-74
2023/03/13 00:43:41;;;;;;;4.77;4.37;;;4.20;93.70;;;;;;5072684;28;20694;-76
2023/03/13 00:46:07;;;;;;;8.03;4.93;;;4.10;93.90;;;;;;5072184;28;20190;-81
2023/03/13 00:48:33;;;;;;;6.17;5.00;;;4.10;93.90;;;;;;5072153;28;20206;-77
2023/03/13 00:51:00;;;;;;;7.47;5.60;;;4.00;94.10;;;;;;5072405;28;20184;-73
2023/03/13 00:53:26;;;;;;;9.03;6.50;;;3.90;94.20;;;;;;5072436;28;20640;-75
2023/03/13 00:56:06;;;;;;;8.47;6.27;;;3.80;94.30;;;;;;5072041;28;20174;-76
2023/03/13 00:58:34;;;;;;;10.10;6.60;;;3.80;94.30;;;;;;5071929;28;20170;-76
2023/03/13 01:01:32;;;;;;;7.73;6.33;;;3.80;94.40;;;;;;5071718;28;20174;-80
2023/03/13 01:04:04;;;;;;;9.43;6.20;;;3.90;94.40;;;;;;5066822;28;20368;-74
2023/03/13 01:06:32;;;;;;;10.43;6.33;;;3.90;94.30;;;;;;5071709;28;20185;-80
2023/03/13 01:08:58;;;;;;;10.07;6.40;;;3.80;94.40;;;;;;5072058;28;20677;-83
2023/03/13 01:11:27;;;;;;;9.63;6.13;;;3.80;94.60;;;;;;5071906;28;20564;-83
2023/03/13 01:13:59;;;;;;;9.47;6.30;;;3.80;94.40;;;;;;5071977;28;20907;-85
2023/03/13 01:16:25;;;;;;;9.33;6.90;;;3.80;94.40;;;;;;5072258;28;20202;-83
2023/03/13 01:18:56;;;;;;;6.80;6.00;;;3.80;94.40;;;;;;5078851;28;20185;-76
2023/03/13 01:21:24;;;;;;;10.03;6.20;;;3.80;94.50;;;;;;5093741;28;20162;-78
2023/03/13 01:23:51;;;;;;;7.13;5.80;;;3.80;94.60;;;;;;5080610;28;20301;-83
2023/03/13 01:26:18;;;;;;;8.73;5.53;;;3.70;94.60;;;;;;5072503;28;20206;-84
2023/03/13 01:28:44;;;;;;;8.57;5.90;;;3.70;94.50;;;;;;5074306;28;20214;-82
2023/03/13 01:31:18;;;;;;;9.13;6.90;;;3.70;94.40;;;;;;5081144;28;20579;-78
2023/03/13 01:33:45;;;;;;;7.67;6.17;;;3.70;94.50;;;;;;5087513;28;20174;-74
2023/03/13 01:36:11;;;;;;;7.37;6.40;;;3.60;94.50;;;;;;5080566;28;20169;-73
2023/03/13 01:38:38;;;;;;;9.90;6.57;;;3.50;94.70;;;;;;5079935;28;20181;-76
2023/03/13 01:41:05;;;;;;;7.27;6.00;;;3.50;94.80;;;;;;5075739;28;20217;-79
2023/03/13 01:43:34;;;;;;;8.73;6.00;;;3.50;94.90;;;;;;5075715;28;20244;-81
2023/03/13 01:46:04;;;;;;;9.47;5.67;;;3.50;94.80;;;;;;5078728;28;20176;-82
2023/03/13 01:48:36;;;;;;;7.43;5.63;;;3.50;94.70;;;;;;5078012;28;20686;-84
2023/03/13 01:51:25;;;;;;;5.40;4.90;;;3.40;94.90;;;;;;5075628;28;20224;-82
2023/03/13 01:53:59;;;;;;;6.33;5.70;;;3.40;94.70;;;;;;5074705;28;20204;-85
2023/03/13 01:56:54;;;;;;;7.23;4.63;;;3.50;94.70;;;;;;5080778;28;20170;-77
2023/03/13 01:59:43;;;;;;;6.97;5.00;;;3.40;94.80;;;;;;5079073;28;20191;-85
2023/03/13 02:02:09;;;;;;;10.70;5.23;;;3.40;94.80;;;;;;5060129;28;20558;-86
2023/03/13 02:04:40;;;;;;;5.90;4.97;;;3.40;94.70;;;;;;5075607;28;20189;-82
2023/03/13 02:07:11;;;;;;;4.67;4.13;;;3.40;94.80;;;;;;5060135;28;20225;-80
2023/03/13 02:09:39;;;;;;;7.10;4.90;;;3.30;94.80;;;;;;5088641;28;20167;-79
2023/03/13 02:12:37;;;;;;;4.83;4.43;;;3.30;94.70;;;;;;5076583;28;20172;-80
2023/03/13 02:15:12;;;;;;;7.90;4.43;;;3.30;94.70;;;;;;5076552;28;20258;-82
2023/03/13 02:17:39;;;;;;;4.23;3.87;;;3.20;94.80;;;;;;5077273;28;20174;-84
2023/03/13 02:20:06;;;;;;;5.40;4.10;;;3.20;94.90;;;;;;5089766;28;20171;-85
2023/03/13 02:22:44;;;;;;;4.33;3.93;;;3.10;94.80;;;;;;5080027;28;20194;-85
2023/03/13 02:25:15;;;;;;;3.80;3.50;;;3.20;94.80;;;;;;5057850;28;20203;-85
2023/03/13 02:27:43;;;;;;;4.73;4.23;;;3.10;94.80;;;;;;5075318;28;20199;-85
2023/03/13 02:30:13;;;;;;;7.37;4.63;;;3.10;94.90;;;;;;5074344;28;20171;-74
2023/03/13 02:32:40;;;;;;;4.67;4.20;;;3.10;94.90;;;;;;5074296;28;20178;-74
2023/03/13 02:35:09;;;;;;;4.40;4.00;;;3.20;94.90;;;;;;5074028;28;20648;-74
2023/03/13 02:37:36;;;;;;;3.97;3.57;;;3.20;94.80;;;;;;5073828;28;20195;-74
2023/03/13 02:40:08;;;;;;;4.13;3.80;;;3.10;94.70;;;;;;5073165;28;20178;-73
2023/03/13 02:42:37;;;;;;;4.13;3.80;;;3.10;94.90;;;;;;5073671;28;20210;-75
2023/03/13 02:45:03;;;;;;;4.27;3.97;;;3.10;94.90;;;;;;5073702;28;20226;-73
2023/03/13 02:47:29;;;;;;;4.20;3.80;;;3.10;94.80;;;;;;5073435;28;20211;-75
2023/03/13 02:49:55;;;;;;;3.90;3.57;;;3.00;95.00;;;;;;5073794;28;20619;-76
2023/03/13 02:52:27;;;;;;;4.70;3.23;;;2.90;95.00;;;;;;5073669;28;20181;-78
2023/03/13 02:55:01;;;;;;;4.83;3.83;;;2.70;95.30;;;;;;5074883;28;20248;-74
2023/03/13 02:57:28;;;;;;;4.13;3.50;;;2.50;95.70;;;;;;5082679;28;20170;-74
2023/03/13 02:59:54;;;;;;;3.80;3.47;;;2.40;95.80;;;;;;5081183;28;20604;-86
2023/03/13 03:02:20;;;;;;;3.60;3.30;;;2.50;95.80;;;;;;5074469;28;20172;-83
2023/03/13 03:04:46;;;;;;;3.43;3.13;;;2.40;96.00;;;;;;5056052;28;20294;-84
2023/03/13 03:07:12;;;;;;;5.27;3.80;;;2.40;95.90;;;;;;5073840;28;20205;-86
2023/03/13 03:09:37;;;;;;;3.67;3.37;;;2.30;96.10;;;;;;5074041;28;20174;-87
2023/03/13 03:12:04;;;;;;;3.30;3.10;;;2.40;96.00;;;;;;5076570;28;20179;-78
2023/03/13 03:14:29;;;;;;;4.53;3.20;;;2.40;96.00;;;;;;5075489;28;20163;-74
2023/03/13 03:16:55;;;;;;;3.50;3.20;;;2.40;96.10;;;;;;5073593;28;20186;-75
2023/03/13 03:19:21;;;;;;;3.13;2.93;;;2.40;96.10;;;;;;5073451;28;20204;-80
2023/03/13 03:21:48;;;;;;;3.50;3.20;;;2.60;96.00;;;;;;5073769;28;20171;-81
2023/03/13 03:24:14;;;;;;;4.40;2.90;;;2.60;96.10;;;;;;5074406;28;20194;-83
2023/03/13 03:26:40;;;;;;;3.63;3.27;;;2.60;96.30;;;;;;5077180;28;20563;-76
2023/03/13 03:29:07;;;;;;;3.07;2.87;;;2.70;96.40;;;;;;5081012;28;20179;-75
2023/03/13 03:31:33;;;;;;;3.47;2.93;;;2.80;96.20;;;;;;5093839;28;20181;-83
2023/03/13 03:33:59;;;;;;;3.43;3.13;;;2.80;96.30;;;;;;5077015;28;20198;-84
2023/03/13 03:36:25;;;;;;;4.83;3.07;;;2.80;96.30;;;;;;5076753;28;20184;-85
2023/03/13 03:38:51;;;;;;;3.20;3.00;;;2.70;96.30;;;;;;5081302;28;20272;-86
2023/03/13 03:41:18;;;;;;;2.70;2.50;;;2.70;96.30;;;;;;5084319;28;20238;-77
2023/03/13 03:43:44;;;;;;;3.73;2.80;;;2.70;96.50;;;;;;5079493;28;20262;-74
2023/03/13 03:46:10;;;;;;;3.07;2.87;;;2.70;96.50;;;;;;5073903;28;20177;-74
2023/03/13 03:48:36;;;;;;;3.43;2.63;;;2.60;96.60;;;;;;5073364;28;20203;-83
2023/03/13 03:51:02;;;;;;;3.13;2.87;;;2.70;96.70;;;;;;5073275;28;20163;-81
2023/03/13 03:53:28;;;;;;;3.97;3.40;;;2.80;96.50;;;;;;5072980;28;20228;-80
2023/03/13 03:55:54;;;;;;;3.40;3.10;;;2.80;96.40;;;;;;5074121;28;20203;-83
2023/03/13 03:58:20;;;;;;;3.10;2.90;;;2.80;96.40;;;;;;5074368;28;20533;-82
2023/03/13 04:00:47;;;;;;;5.17;2.90;;;2.80;96.30;;;;;;5073086;28;20175;-80
2023/03/13 04:03:14;;;;;;;5.30;3.20;;;2.80;96.20;;;;;;5072837;28;20480;-78
2023/03/13 04:05:40;;;;;;;3.20;2.90;;;2.70;96.00;;;;;;5072871;28;20225;-83
2023/03/13 04:08:06;;;;;;;3.27;2.70;;;2.60;96.30;;;;;;5072884;28;20202;-84
2023/03/13 04:10:32;;;;;;;3.20;2.90;;;2.70;96.40;;;;;;5073032;28;20175;-83
2023/03/13 04:12:58;;;;;;;4.03;2.90;;;2.80;96.30;;;;;;5072911;28;20189;-83
2023/03/13 04:15:24;;;;;;;5.20;3.20;;;2.70;96.30;;;;;;5073237;28;20176;-83
2023/03/13 04:17:50;;;;;;;3.30;3.10;;;2.70;96.30;;;;;;5072840;28;20240;-74
2023/03/13 04:20:15;;;;;;;2.80;2.60;;;2.60;96.50;;;;;;5072774;28;20634;-75
2023/03/13 04:22:41;;;;;;;3.40;3.10;;;2.60;96.50;;;;;;5073076;28;20693;-75
2023/03/13 04:25:08;;;;;;;3.07;2.87;;;2.60;96.40;;;;;;5076098;28;20538;-78
2023/03/13 04:27:34;;;;;;;8.93;3.30;;;2.60;96.40;;;;;;5077366;28;20559;-79
2023/03/13 04:30:00;;;;;;;3.20;3.00;;;2.60;96.50;;;;;;5073176;28;20732;-76
2023/03/13 04:32:26;;;;;;;2.80;2.60;;;2.70;96.60;;;;;;5079038;28;20225;-74
2023/03/13 04:34:52;;;;;;;2.80;2.60;;;2.70;96.30;;;;;;5086144;28;20237;-74
2023/03/13 04:37:18;;;;;;;3.10;2.90;;;2.70;96.40;;;;;;5072797;28;20224;-74
2023/03/13 04:39:43;;;;;;;3.13;2.90;;;2.70;96.60;;;;;;5072828;28;20175;-76
2023/03/13 04:42:10;;;;;;;2.60;2.50;;;2.70;96.50;;;;;;5072671;28;20569;-74
2023/03/13 04:44:36;;;;;;;3.43;3.13;;;2.60;96.70;;;;;;5072712;28;20258;-85
2023/03/13 04:47:02;;;;;;;3.10;2.80;;;2.60;96.60;;;;;;5072878;28;20207;-83
2023/03/13 04:49:28;;;;;;;3.03;2.83;;;2.60;96.70;;;;;;5073324;28;20173;-86
2023/03/13 04:51:54;;;;;;;3.47;3.17;;;2.50;96.80;;;;;;5074038;28;20183;-85
2023/03/13 04:54:20;;;;;;;3.07;2.90;;;2.60;96.80;;;;;;5072466;28;20183;-78
2023/03/13 04:56:46;;;;;;;3.60;3.30;;;2.60;96.80;;;;;;5072236;28;20164;-86
2023/03/13 04:59:12;;;;;;;3.33;3.00;;;2.70;96.70;;;;;;5072547;28;20297;-85
2023/03/13 05:01:39;;;;;;;3.77;3.30;;;2.70;96.60;;;;;;5073144;28;20174;-86
2023/03/13 05:04:05;;;;;;;3.43;3.03;;;2.70;96.50;;;;;;5089758;28;20177;-84
2023/03/13 05:06:31;;;;;;;5.80;3.07;;;2.70;96.60;;;;;;5077720;28;20166;-84
2023/03/13 05:08:57;;;;;;;4.80;2.87;;;2.60;96.70;;;;;;5076852;28;20329;-73
2023/03/13 05:11:23;;;;;;;3.47;3.00;;;2.50;96.90;;;;;;5077121;28;20700;-73
2023/03/13 05:13:48;;;;;;;4.20;3.60;;;2.50;96.90;;;;;;5085274;28;20186;-76
2023/03/13 05:16:14;;;;;;;5.20;3.37;;;2.50;96.90;;;;;;5087397;28;20172;-86
2023/03/13 05:18:40;;;;;;;4.07;3.57;;;2.50;97.10;;;;;;5078003;28;20180;-82
2023/03/13 05:21:06;;;;;;;4.63;3.87;;;2.50;97.10;;;;;;5076296;28;20186;-85
2023/03/13 05:23:32;;;;;;;4.23;3.90;;;2.60;96.90;;;;;;5060427;28;20248;-85
2023/03/13 05:25:59;;;;;;;4.30;3.90;;;2.60;96.80;;;;;;5086755;28;20166;-85
2023/03/13 05:28:25;;;;;;;5.93;4.20;;;2.60;96.80;;;;;;5080719;28;20234;-86
2023/03/13 05:30:51;;;;;;;5.87;4.30;;;2.60;96.90;;;;;;5075980;28;20197;-84
2023/03/13 05:33:18;;;;;;;10.83;5.00;;;2.50;97.10;;;;;;5076232;28;20524;-86
2023/03/13 05:35:44;;;;;;;5.50;5.00;;;2.50;97.10;;;;;;5058272;28;20212;-85
2023/03/13 05:38:11;;;;;;;6.80;4.60;;;2.70;97.00;;;;;;5076251;28;20523;-87
2023/03/13 05:40:36;;;;;;;5.37;4.77;;;2.60;97.00;;;;;;5076355;28;20191;-83
2023/03/13 05:43:02;;;;;;;8.10;5.57;;;2.70;97.00;;;;;;5076778;28;20630;-82
2023/03/13 05:45:28;;;;;;;6.07;5.47;;;2.80;97.00;;;;;;5058310;28;20166;-86
2023/03/13 05:47:54;;;;;;;9.70;6.27;;;2.80;96.80;;;;;;5075613;28;20288;-86
2023/03/13 05:50:20;;;;;;;6.50;5.43;;;2.70;96.80;;;;;;5075488;28;20171;-86
2023/03/13 05:52:46;;;;;;;6.13;5.17;;;2.70;97.00;;;;;;5075804;28;20258;-77
2023/03/13 05:55:12;;;;;;;6.83;5.50;;;2.70;96.80;;;;;;5075545;28;20726;-84
2023/03/13 05:57:38;;;;;;;7.10;5.60;;;2.70;97.00;;;;;;5075847;28;20523;-84
2023/03/13 06:00:05;;;;;;;6.87;4.60;;;2.80;96.90;;;;;;5075902;28;20175;-85
2023/03/13 06:02:30;;;;;;;8.37;4.90;;;2.80;97.00;;;;;;5075973;28;20772;-84
2023/03/13 06:04:57;;;;;;;6.27;4.97;;;2.80;97.10;;;;;;5076397;28;20257;-85
2023/03/13 06:07:22;;;;;;;4.90;4.40;;;2.90;96.90;;;;;;5077868;28;20202;-80
2023/03/13 06:09:48;;;;;;;5.87;4.90;;;3.10;96.60;;;;;;5094787;28;20158;-77
2023/03/13 06:12:14;;;;;;;7.37;5.47;;;3.10;96.60;;;;;;5082070;28;20183;-81
2023/03/13 06:14:39;;;;;;;8.57;5.20;;;3.20;96.70;;;;;;5077369;28;20164;-83
2023/03/13 06:17:05;;;;;;;5.53;4.97;;;3.30;96.60;;;;;;5075920;28;20173;-80
2023/03/13 06:19:31;;;;;;;9.27;5.73;;;3.40;96.70;;;;;;5075658;28;20678;-86
2023/03/13 06:21:57;;;;;;;7.07;5.40;;;3.40;96.50;;;;;;5076142;28;20253;-82
2023/03/13 06:24:23;;;;;;;5.83;5.00;;;3.50;96.40;;;;;;5076409;28;20527;-83
2023/03/13 06:26:49;;;;;;;8.97;5.80;;;3.60;96.30;;;;;;5081417;28;20178;-77
2023/03/13 06:29:16;;;;;;;6.83;5.03;;;3.60;96.40;;;;;;5087294;28;20190;-83
2023/03/13 06:31:41;;;;;;;6.67;5.30;;;3.60;96.30;;;;;;5091781;28;20181;-78
2023/03/13 06:34:11;;;;;;;5.93;5.33;;;3.70;96.30;;;;;;5077978;28;20177;-75
2023/03/13 06:36:37;;;;;;;9.17;5.40;;;3.70;96.20;;;;;;5090381;28;20247;-74
2023/03/13 06:39:03;;;;;;;8.07;5.97;;;3.70;96.30;;;;;;5075578;28;20198;-84
2023/03/13 06:41:29;;;;;;;9.07;5.67;;;3.80;96.20;;;;;;5075025;28;20183;-85
2023/03/13 06:43:55;;;;;;;9.30;5.50;;;3.90;96.00;;;;;;5074566;28;20227;-81
2023/03/13 06:46:23;;;;;;;8.33;5.97;;;4.10;96.20;;;;;;5081723;28;20183;-77
2023/03/13 06:48:49;;;;;;;6.80;5.10;;;4.20;95.90;;;;;;5086520;28;20213;-83
2023/03/13 06:51:17;;;;;;;8.17;5.20;;;4.20;95.80;;;;;;5057212;28;20193;-83
2023/03/13 06:53:43;;;;;;;7.70;5.60;;;4.30;95.90;;;;;;5056656;28;20191;-80
2023/03/13 06:56:10;;;;;;;7.83;5.27;;;4.50;95.80;;;;;;5074534;28;20676;-81
2023/03/13 06:58:36;;;;;;;10.40;5.23;;;4.70;95.80;;;;;;5074406;28;20204;-83
2023/03/13 07:01:10;;;;;;;7.30;5.83;;;4.90;95.30;;;;;;5074848;28;20171;-77
2023/03/13 07:03:37;;;;;;;7.87;4.93;;;5.00;95.20;;;;;;5075127;28;20201;-74
2023/03/13 07:06:04;;;;;;;7.20;5.50;;;5.10;95.20;;;;;;5076613;28;20176;-73
2023/03/13 07:08:30;;;;;;;10.73;6.13;;;5.20;95.10;;;;;;5057434;28;20749;-73
2023/03/13 07:11:05;;;;;;;6.67;5.33;;;5.30;96.60;;;;;;5074827;28;20623;-86
2023/03/13 07:13:31;;;;;;;6.03;5.30;;;5.40;96.10;;;;;;5074247;28;20200;-85
2023/03/13 07:16:04;;;;;;;6.40;5.03;;;5.50;96.90;;;;;;5075503;28;20508;-84
2023/03/13 07:18:31;;;;;;;5.70;5.10;;;5.50;96.60;;;;;;5076104;28;20174;-77
2023/03/13 07:20:58;;;;;;;7.30;5.03;;;5.60;96.80;;;;;;5076320;28;20626;-77
2023/03/13 07:23:26;;;;;;;8.63;5.57;;;5.60;96.60;;;;;;5076539;28;20194;-79
2023/03/13 07:25:57;;;;;;;5.47;4.63;;;5.70;96.10;;;;;;5056225;28;20187;-75
2023/03/13 07:28:23;;;;;;;6.80;5.10;;;5.60;95.80;;;;;;5073610;28;20296;-74
2023/03/13 07:30:49;;;;;;;12.00;5.40;;;5.70;96.60;;;;;;5073646;28;20209;-76
2023/03/13 07:33:16;;;;;;;7.63;5.27;;;5.90;96.20;;;;;;5073765;28;20893;-74
2023/03/13 07:35:49;;;;;;;5.70;5.00;;;6.00;95.40;;;;;;5056060;28;20651;-77
2023/03/13 07:38:16;;;;;;;8.23;5.10;;;6.00;94.90;;;;;;5073769;28;20181;-74
2023/03/13 07:40:53;;;;;;;7.67;5.40;;;6.10;95.10;;;;;;5073953;28;20180;-74
2023/03/13 07:43:19;;;;;;;8.00;5.83;;;6.20;95.00;;;;;;5081504;28;20222;-75
2023/03/13 07:45:59;;;;;;;8.60;5.70;;;6.30;94.90;;;;;;5093637;28;20180;-74
2023/03/13 07:48:29;;;;;;;8.87;5.47;;;6.40;94.20;;;;;;5076881;28;20689;-75
2023/03/13 07:50:55;;;;;;;7.73;5.10;;;6.50;94.30;;;;;;5074100;28;20189;-79
2023/03/13 07:53:21;;;;;;;7.27;5.70;;;6.50;94.00;;;;;;5072995;28;20178;-85
2023/03/13 07:55:59;;;;;;;8.27;5.80;;;6.50;94.20;;;;;;5073231;28;20185;-84
2023/03/13 07:58:27;;;;;;;10.97;5.83;;;6.60;94.50;;;;;;5073232;28;20688;-84
2023/03/13 08:00:55;;;;;;;8.40;6.13;;;6.70;94.00;;;;;;5073300;28;20179;-82
2023/03/13 08:03:22;;;;;;;8.23;5.40;;;6.80;93.70;;;;;;5073321;28;20175;-81
2023/03/13 08:05:56;;;;;;;7.60;5.50;;;7.00;94.00;;;;;;5073603;28;20175;-77
2023/03/13 08:08:22;;;;;;;9.67;5.47;;;7.00;93.60;;;;;;5077889;28;20303;-80
2023/03/13 08:10:48;;;;;;;8.97;5.83;;;7.10;93.90;;;;;;5078414;28;20201;-75
2023/03/13 08:13:13;;;;;;;10.33;5.50;;;7.10;93.60;;;;;;5056894;28;20241;-82
2023/03/13 08:15:39;;;;;;;8.43;5.77;;;7.10;93.60;;;;;;5073454;28;20177;-78
2023/03/13 08:18:05;;;;;;;6.60;5.23;;;7.10;94.00;;;;;;5073440;28;20183;-76
2023/03/13 08:20:30;;;;;;;10.10;5.60;;;7.10;94.10;;;;;;5085694;28;20238;-75
2023/03/13 08:22:56;;;;;;;7.93;5.90;;;7.20;94.20;;;;;;5079368;28;20207;-74
2023/03/13 08:25:22;;;;;;;10.67;6.27;;;7.40;93.90;;;;;;5074400;28;20182;-79
2023/03/13 08:27:48;;;;;;;9.87;6.90;;;7.40;94.20;;;;;;5074947;28;20224;-79
2023/03/13 08:30:14;;;;;;;8.57;6.67;;;7.60;94.30;;;;;;5074280;28;20264;-86
2023/03/13 08:32:40;;;;;;;6.80;6.10;;;7.60;93.70;;;;;;5074103;28;20695;-82
2023/03/13 08:35:06;;;;;;;8.97;6.83;;;7.60;93.90;;;;;;5057687;28;20281;-82
2023/03/13 08:37:32;;;;;;;10.27;6.27;;;7.70;94.00;;;;;;5084115;28;20170;-78
2023/03/13 08:39:58;;;;;;;8.33;6.27;;;7.70;94.10;;;;;;5078260;28;20572;-81
2023/03/13 08:42:24;;;;;;;9.30;5.50;;;7.70;94.10;;;;;;5077143;28;20181;-74
2023/03/13 08:44:49;;;;;;;7.47;5.93;;;7.70;93.70;;;;;;5077076;28;20563;-76
2023/03/13 08:47:17;;;;;;;11.63;6.07;;;7.80;93.40;;;;;;5077005;28;20210;-74
2023/03/13 08:49:43;;;;;;;10.47;6.53;;;7.90;93.40;;;;;;5077230;28;20170;-73
2023/03/13 08:52:09;;;;;;;9.07;6.13;;;7.90;93.60;;;;;;5076270;28;20182;-80
2023/03/13 08:54:34;;;;;;;8.57;6.40;;;7.90;93.60;;;;;;5076366;28;20853;-78
2023/03/13 08:57:00;;;;;;;7.57;6.47;;;8.00;93.60;;;;;;5078435;28;20180;-84
2023/03/13 08:59:26;;;;;;;8.77;6.30;;;8.10;93.60;;;;;;5076822;28;20178;-81
2023/03/13 09:01:52;;;;;;;7.27;6.27;;;8.20;93.50;;;;;;5076706;28;20175;-80
2023/03/13 09:04:19;;;;;;;7.27;6.27;;;8.40;93.00;;;;;;5076946;28;20192;-78
2023/03/13 09:06:44;;;;;;;8.77;6.23;;;8.50;92.80;;;;;;5077251;28;20190;-78
2023/03/13 09:09:11;;;;;;;8.17;5.80;;;8.50;93.10;;;;;;5061953;28;20213;-77
2023/03/13 09:11:38;;;;;;;10.30;6.90;;;8.70;93.30;;;;;;5077099;28;20522;-80
2023/03/13 09:14:04;;;;;;;10.03;6.10;;;8.70;92.80;;;;;;5076776;28;20650;-82
2023/03/13 09:16:32;;;;;;;7.30;6.10;;;8.80;92.90;;;;;;5080280;28;20665;-76
2023/03/13 09:18:59;;;;;;;6.93;6.30;;;8.90;92.70;;;;;;5083326;28;20170;-74
2023/03/13 09:21:32;;;;;;;14.83;7.10;;;8.90;93.10;;;;;;5083689;28;20182;-75
2023/03/13 09:23:59;;;;;;;10.63;6.10;;;8.90;92.90;;;;;;5087966;28;20668;-84
2023/03/13 09:26:26;;;;;;;9.27;7.00;;;9.00;92.70;;;;;;5078068;28;20171;-82
2023/03/13 09:28:52;;;;;;;9.93;6.87;;;9.10;92.40;;;;;;5058415;28;20292;-84
2023/03/13 09:31:24;;;;;;;9.20;7.03;;;9.00;93.00;;;;;;5058416;28;20639;-77
2023/03/13 09:33:51;;;;;;;10.63;5.97;;;9.00;92.60;;;;;;5076270;28;20266;-81
2023/03/13 09:36:18;;;;;;;10.57;6.63;;;8.90;92.80;;;;;;5076801;28;20182;-81
2023/03/13 09:38:44;;;;;;;7.67;5.97;;;8.80;92.90;;;;;;5076492;28;20165;-85
2023/03/13 09:41:15;;;;;;;9.80;5.97;;;8.80;93.10;;;;;;5059602;28;20618;-85
2023/03/13 09:43:47;;;;;;;9.43;6.03;;;8.70;92.70;;;;;;5080694;28;20237;-85
2023/03/13 09:46:33;;;;;;;6.97;5.57;;;8.70;92.80;;;;;;5076777;28;20176;-86
2023/03/13 09:49:04;;;;;;;11.73;6.03;;;8.50;93.00;;;;;;5078164;28;20200;-86
2023/03/13 09:51:37;;;;;;;10.50;6.10;;;8.70;93.10;;;;;;5078497;28;20159;-75
2023/03/13 09:54:22;;;;;;;6.33;5.63;;;8.70;92.90;;;;;;5089065;28;20181;-77
2023/03/13 09:57:01;;;;;;;7.27;5.27;;;8.70;92.90;;;;;;5058144;28;20725;-81
2023/03/13 09:59:42;;;;;;;6.13;5.07;;;8.80;92.80;;;;;;5075606;28;20248;-76
2023/03/13 10:02:25;;;;;;;6.20;5.20;;;8.90;92.30;;;;;;5075675;28;20584;-84
2023/03/13 10:05:09;;;;;;;6.73;5.53;;;8.90;92.30;;;;;;5075073;28;20159;-81
2023/03/13 10:07:35;;;;;;;6.27;5.43;;;9.10;92.20;;;;;;5074882;28;20203;-80
2023/03/13 10:10:02;;;;;;;5.90;5.17;;;9.20;92.20;;;;;;5075134;28;20202;-77
2023/03/13 10:12:37;;;;;;;6.43;5.23;;;9.20;92.00;;;;;;5074860;28;20173;-75
2023/03/13 10:15:34;;;;;;;6.50;4.77;;;9.30;92.10;;;;;;5074693;28;20264;-75
2023/03/13 10:18:14;;;;;;;5.73;4.30;;;9.40;92.00;;;;;;5074545;28;20179;-77
2023/03/13 10:20:43;;;;;;;6.63;4.83;;;9.60;91.90;;;;;;5074676;28;20164;-76
2023/03/13 10:23:40;;;;;;;5.10;4.60;;;9.70;92.00;;;;;;5074472;28;20197;-82
2023/03/13 10:26:17;;;;;;;6.67;4.60;;;9.70;91.70;;;;;;5074443;28;20168;-77
2023/03/13 10:28:43;;;;;;;7.40;4.17;;;9.80;91.70;;;;;;5074572;28;20227;-78
2023/03/13 10:31:20;;;;;;;8.63;5.00;;;9.80;91.40;;;;;;5074521;28;20180;-80
2023/03/13 10:33:46;;;;;;;5.40;4.30;;;10.00;91.10;;;;;;5074607;28;20166;-80
2023/03/13 10:36:13;;;;;;;4.50;3.97;;;10.00;91.10;;;;;;5075024;28;20171;-82
2023/03/13 10:38:53;;;;;;;6.73;4.47;;;10.10;91.10;;;;;;5075871;28;20224;-75
2023/03/13 10:41:35;;;;;;;5.63;4.07;;;10.10;91.20;;;;;;5076464;28;20909;-76
2023/03/13 10:44:14;;;;;;;5.67;3.80;;;10.20;90.70;;;;;;5078704;28;20223;-73
2023/03/13 10:46:42;;;;;;;5.13;3.70;;;10.20;91.10;;;;;;5094059;28;20224;-73
2023/03/13 10:49:18;;;;;;;6.27;3.63;;;10.20;90.70;;;;;;5094148;28;20210;-75
2023/03/13 10:51:50;;;;;;;4.47;4.07;;;10.30;90.50;;;;;;5093907;28;20184;-75
2023/03/13 10:54:35;;;;;;;5.60;4.00;;;10.30;90.30;;;;;;5092728;28;20189;-74
2023/03/13 10:57:27;;;;;;;4.00;3.70;;;10.50;90.60;;;;;;5096174;28;20180;-74
2023/03/13 10:59:54;;;;;;;4.10;3.80;;;10.70;90.70;;;;;;5104825;28;20169;-79
2023/03/13 11:02:42;;;;;;;4.00;3.70;;;10.80;90.30;;;;;;5093980;28;20679;-73
2023/03/13 11:05:27;;;;;;;4.30;3.90;;;10.90;90.10;;;;;;5093026;28;20194;-78
2023/03/13 11:07:54;;;;;;;4.60;3.70;;;11.10;90.10;;;;;;5093511;28;20200;-78
2023/03/13 11:10:35;;;;;;;3.73;3.43;;;11.40;90.00;;;;;;5093274;28;20720;-75
2023/03/13 11:13:02;;;;;;;4.10;3.70;;;11.80;89.40;;;;;;5095103;28;20185;-77
2023/03/13 11:15:55;;;;;;;4.37;3.97;;;12.10;89.50;;;;;;5098727;28;20162;-75
2023/03/13 11:18:28;;;;;;;4.57;3.80;;;12.50;88.90;;;;;;5092651;28;20297;-81
2023/03/13 11:20:55;;;;;;;5.40;3.60;;;12.70;87.90;;;;;;5093392;28;20159;-80
2023/03/13 11:23:38;;;;;;;5.10;3.97;;;12.90;87.50;;;;;;5095382;28;20171;-75
2023/03/13 11:26:33;;;;;;;4.57;4.17;;;13.00;86.70;;;;;;5096771;28;20184;-77
2023/03/13 11:29:14;;;;;;;9.57;4.27;;;13.00;86.10;;;;;;5094748;28;20205;-77
2023/03/13 11:31:45;;;;;;;6.57;4.27;;;12.90;85.80;;;;;;5093318;28;20171;-77
2023/03/13 11:34:17;;;;;;;5.30;4.17;;;12.90;85.80;;;;;;5092035;28;20170;-82
2023/03/13 11:36:56;;;;;;;3.90;3.60;;;12.90;86.70;;;;;;5093446;28;20309;-83
2023/03/13 11:39:34;;;;;;;5.43;4.30;;;13.00;87.00;;;;;;5095340;28;20165;-84
2023/03/13 11:42:12;;;;;;;4.23;3.77;;;13.30;86.50;;;;;;5092166;28;20200;-83
2023/03/13 11:44:49;;;;;;;5.70;3.63;;;13.60;85.90;;;;;;5077356;28;20229;-77
2023/03/13 11:47:30;;;;;;;4.33;3.70;;;13.60;84.30;;;;;;5073142;28;20271;-78
2023/03/13 11:50:30;;;;;;;4.30;3.17;;;13.70;84.00;;;;;;5073020;28;20175;-81
2023/03/13 11:53:09;;;;;;;3.23;3.03;;;13.90;83.50;;;;;;5074043;28;20195;-82
2023/03/13 11:55:53;;;;;;;3.47;3.13;;;13.90;83.40;;;;;;5073772;28;20244;-79
2023/03/13 11:58:39;;;;;;;5.00;3.33;;;14.00;83.20;;;;;;5072660;28;20185;-80
2023/03/13 12:01:15;;;;;;;4.57;3.10;;;14.10;83.40;;;;;;5072570;28;20183;-76
2023/03/13 12:03:53;;;;;;;3.80;3.07;;;14.10;83.00;;;;;;5072675;28;20170;-76
2023/03/13 12:06:36;;;;;;;3.33;3.03;;;14.10;82.80;;;;;;5072470;28;20251;-76
2023/03/13 12:09:27;;;;;;;4.50;3.00;;;14.10;83.10;;;;;;5072268;28;20260;-77
2023/03/13 12:12:10;;;;;;;3.50;3.20;;;14.00;82.40;;;;;;5072353;28;20627;-74
2023/03/13 12:14:55;;;;;;;3.47;3.13;;;13.90;82.40;;;;;;5072497;28;20167;-75
2023/03/13 12:17:31;;;;;;;3.77;3.37;;;13.80;83.20;;;;;;5072416;28;20186;-76
2023/03/13 12:20:18;;;;;;;3.20;3.00;;;13.90;83.50;;;;;;5072223;28;20158;-74
2023/03/13 12:23:02;;;;;;;3.53;3.00;;;14.00;82.80;;;;;;5072139;28;20157;-75
2023/03/13 12:25:50;;;;;;;4.33;3.30;;;14.00;82.70;;;;;;5072421;28;20175;-75
2023/03/13 12:28:35;;;;;;;5.33;3.00;;;14.10;82.80;;;;;;5072282;28;20203;-76
2023/03/13 12:31:20;;;;;;;3.30;3.00;;;14.20;83.70;;;;;;5072061;28;20633;-75
2023/03/13 12:34:23;;;;;;;3.50;3.20;;;14.30;83.60;;;;;;5075784;28;20172;-76
2023/03/13 12:37:00;;;;;;;4.47;4.03;;;14.30;83.00;;;;;;5082090;28;20647;-82
2023/03/13 12:39:42;;;;;;;4.90;3.60;;;14.30;83.40;;;;;;5074448;28;20174;-83
2023/03/13 12:42:27;;;;;;;3.90;3.33;;;14.10;83.60;;;;;;5073374;28;20203;-85
2023/03/13 12:44:55;;;;;;;5.63;3.50;;;14.10;83.60;;;;;;5073766;28;20216;-82
2023/03/13 12:47:31;;;;;;;3.17;2.97;;;14.10;83.40;;;;;;5078319;28;20203;-80
2023/03/13 12:50:00;;;;;;;3.30;3.10;;;14.10;84.30;;;;;;5086330;28;20187;-83
2023/03/13 12:53:04;;;;;;;4.80;3.33;;;14.20;83.00;;;;;;5073610;28;20174;-82
2023/03/13 12:55:48;;;;;;;3.10;2.90;;;14.10;83.60;;;;;;4972761;28;20269;-82
2023/03/13 12:58:46;;;;;;;3.07;2.87;;;14.10;83.30;;;;;;4981734;28;20264;-80
2023/03/13 13:01:32;;;;;;;3.20;2.90;;;14.10;82.60;;;;;;4978149;28;20194;-81
2023/03/13 13:04:14;;;;;;;4.27;2.83;;;14.10;82.90;;;;;;4972270;28;20201;-82
2023/03/13 13:07:03;;;;;;;4.03;2.70;;;14.10;83.10;;;;;;4973176;28;20167;-82
2023/03/13 13:09:38;;;;;;;2.80;2.60;;;14.10;82.50;;;;;;4973534;28;20190;-81
2023/03/13 13:12:21;;;;;;;4.80;2.70;;;14.00;81.50;;;;;;4971300;28;20226;-82
2023/03/13 13:14:47;;;;;;;2.60;2.40;;;14.10;81.20;;;;;;4971545;28;20242;-78